Time;durP1;ratioP1;P1;durP2;ratioP2;P2;SDS_P1;SDS_P2;PMS_P1;PMS_P2;Temp;Humidity;BMP_temperature;BMP_pressure;BME280_temperature;BME280_humidity;BME280_pressure;Samples;Min_cycle;Max_cycle;Signal;HPM_P1;HPM_P2
2024/01/27 00:00:14;;;;;;;17.33;12.98;;;;;;;-1.60;71.35;93866.72;521820;28;911;-61
2024/01/27 00:00:29;;;;;;;20.00;13.23;;;;;;;-1.59;71.80;93871.69;522892;28;1621;-61
2024/01/27 00:00:45;;;;;;;20.83;13.90;;;;;;;-1.59;71.75;93871.69;522018;28;910;-61
2024/01/27 00:01:01;;;;;;;19.95;13.82;;;;;;;-1.58;71.31;93875.88;524094;28;816;-60
2024/01/27 00:01:16;;;;;;;18.50;13.10;;;;;;;-1.60;71.20;93867.47;521858;28;856;-62
2024/01/27 00:01:32;;;;;;;17.33;12.67;;;;;;;-1.57;71.29;93873.94;523679;28;764;-62
2024/01/27 00:01:47;;;;;;;19.92;13.65;;;;;;;-1.57;71.23;93869.28;521770;28;872;-61
2024/01/27 00:02:03;;;;;;;20.87;14.70;;;;;;;-1.56;71.28;93864.63;522741;28;1765;-61
2024/01/27 00:02:18;;;;;;;21.45;14.93;;;;;;;-1.56;71.29;93865.34;522201;28;942;-61
2024/01/27 00:02:34;;;;;;;21.60;15.03;;;;;;;-1.54;71.27;93876.47;522433;28;1077;-61
2024/01/27 00:02:51;;;;;;;22.38;14.57;;;;;;;-1.54;71.31;93873.03;522211;28;991;-61
2024/01/27 00:03:06;;;;;;;22.58;14.02;;;;;;;-1.56;71.42;93870.75;523335;28;1078;-62
2024/01/27 00:03:22;;;;;;;20.83;13.90;;;;;;;-1.56;71.15;93865.34;522460;28;1712;-61
2024/01/27 00:03:37;;;;;;;20.75;13.40;;;;;;;-1.56;71.47;93862.63;522169;28;792;-61
2024/01/27 00:03:54;;;;;;;17.83;12.93;;;;;;;-1.55;71.52;93871.50;522142;28;994;-61
2024/01/27 00:04:09;;;;;;;16.83;12.70;;;;;;;-1.78;71.19;93834.38;523087;28;933;-61
2024/01/27 00:04:25;;;;;;;18.13;13.03;;;;;;;-1.54;70.94;93865.63;523063;28;776;-61
2024/01/27 00:04:40;;;;;;;19.30;13.05;;;;;;;-1.52;71.16;93864.44;523695;28;1190;-61
2024/01/27 00:04:56;;;;;;;20.77;13.63;;;;;;;-1.54;71.06;93854.81;524184;28;785;-61
2024/01/27 00:05:12;;;;;;;23.20;14.33;;;;;;;-1.55;71.05;93866.09;523833;28;1106;-62
2024/01/27 00:05:28;;;;;;;21.13;13.48;;;;;;;-1.59;71.02;93858.16;522680;28;1563;-62
2024/01/27 00:05:43;;;;;;;18.38;12.65;;;;;;;-1.60;71.10;93855.91;522735;28;816;-62
2024/01/27 00:05:59;;;;;;;19.17;12.57;;;;;;;-1.61;71.04;93860.59;522519;28;1625;-62
2024/01/27 00:06:14;;;;;;;18.42;12.38;;;;;;;-1.61;71.04;93860.59;522521;28;1087;-61
2024/01/27 00:06:29;;;;;;;17.40;12.43;;;;;;;-1.60;71.37;93858.59;523191;28;780;-61
2024/01/27 00:06:45;;;;;;;19.23;13.33;;;;;;;-1.59;71.28;93852.75;521997;28;895;-61
2024/01/27 00:07:00;;;;;;;21.48;14.27;;;;;;;-1.57;70.98;93852.28;522775;28;910;-61
2024/01/27 00:07:17;;;;;;;19.30;13.40;;;;;;;-1.62;70.74;93842.06;521033;28;1380;-61
2024/01/27 00:07:32;;;;;;;17.48;12.30;;;;;;;-1.54;71.17;93849.38;524054;28;913;-62
2024/01/27 00:07:48;;;;;;;16.20;11.40;;;;;;;-1.50;70.74;93848.47;523929;28;828;-61
2024/01/27 00:08:03;;;;;;;15.65;10.80;;;;;;;-1.69;70.61;93821.50;522692;28;875;-61
2024/01/27 00:08:19;;;;;;;15.67;10.83;;;;;;;-1.49;70.57;93853.41;522182;28;1745;-61
2024/01/27 00:08:34;;;;;;;14.65;11.13;;;;;;;-1.49;70.82;93850.72;524146;28;827;-62
2024/01/27 00:08:50;;;;;;;15.50;11.27;;;;;;;-1.48;70.35;93844.09;523556;28;993;-61
2024/01/27 00:09:06;;;;;;;16.38;11.38;;;;;;;-1.47;70.72;93845.59;524071;28;824;-61
2024/01/27 00:09:21;;;;;;;17.48;11.75;;;;;;;-1.47;70.56;93845.59;523984;28;832;-62
2024/01/27 00:09:37;;;;;;;19.27;12.30;;;;;;;-1.44;70.70;93847.38;524296;28;910;-61
2024/01/27 00:09:52;;;;;;;19.95;12.02;;;;;;;-1.43;70.51;93842.72;524356;28;824;-61
2024/01/27 00:10:08;;;;;;;20.23;11.87;;;;;;;-1.42;70.62;93844.19;524036;28;757;-61
2024/01/27 00:10:23;;;;;;;17.83;12.55;;;;;;;-1.42;70.67;93849.63;523161;28;1876;-62
2024/01/27 00:10:38;;;;;;;17.30;12.03;;;;;;;-1.42;70.42;93853.09;521904;28;1156;-61
2024/01/27 00:10:54;;;;;;;18.92;11.60;;;;;;;-1.42;70.28;93853.09;521831;28;1758;-61
2024/01/27 00:11:11;;;;;;;18.53;11.93;;;;;;;-1.41;70.33;93851.88;521802;28;791;-61
2024/01/27 00:11:27;;;;;;;16.67;11.57;;;;;;;-1.42;69.86;93852.31;522160;28;1069;-61
2024/01/27 00:11:42;;;;;;;15.63;10.77;;;;;;;-1.44;70.16;93857.47;521825;28;843;-62
2024/01/27 00:11:58;;;;;;;14.47;10.20;;;;;;;-1.46;69.89;93849.81;522671;28;749;-61
2024/01/27 00:12:13;;;;;;;13.77;10.15;;;;;;;-1.46;69.93;93855.22;525380;28;1101;-61
2024/01/27 00:12:28;;;;;;;14.67;9.97;;;;;;;-1.47;69.79;93861.84;524569;28;848;-61
2024/01/27 00:12:44;;;;;;;14.77;9.98;;;;;;;-1.48;69.78;93857.63;522030;28;887;-61
2024/01/27 00:12:59;;;;;;;15.90;10.13;;;;;;;-1.49;69.70;93858.09;522558;28;1556;-61
2024/01/27 00:13:15;;;;;;;16.63;10.13;;;;;;;-1.50;69.56;93860.06;522445;28;863;-62
2024/01/27 00:13:30;;;;;;;15.73;10.00;;;;;;;-1.54;69.69;93856.78;524354;28;773;-62
2024/01/27 00:13:46;;;;;;;14.98;9.90;;;;;;;-1.55;69.39;93863.41;521917;28;1089;-61
2024/01/27 00:14:03;;;;;;;14.27;10.25;;;;;;;-1.54;69.70;93860.22;524226;28;820;-61
2024/01/27 00:14:18;;;;;;;14.68;10.07;;;;;;;-1.54;69.83;93851.38;522007;28;868;-62
2024/01/27 00:14:34;;;;;;;14.30;10.00;;;;;;;-1.52;69.80;93859.03;524017;28;840;-61
2024/01/27 00:14:50;;;;;;;13.00;9.70;;;;;;;-1.52;69.23;93854.34;524136;28;828;-61
2024/01/27 00:15:07;;;;;;;12.52;9.48;;;;;;;-1.50;69.53;93862.00;523726;28;1074;-61
2024/01/27 00:15:23;;;;;;;13.77;9.82;;;;;;;-1.52;69.45;93863.22;521393;28;1525;-62
2024/01/27 00:15:38;;;;;;;13.90;10.07;;;;;;;-1.68;69.16;93854.75;522886;28;1059;-62
2024/01/27 00:15:54;;;;;;;14.70;10.35;;;;;;;-1.63;69.29;93865.72;523135;28;1629;-62
2024/01/27 00:16:09;;;;;;;14.68;11.00;;;;;;;-1.64;69.11;93866.16;522713;28;1154;-61
2024/01/27 00:16:25;;;;;;;15.10;11.67;;;;;;;-1.72;69.66;93865.00;524318;28;772;-62
2024/01/27 00:16:41;;;;;;;15.35;11.23;;;;;;;-1.78;69.85;93866.84;522006;28;764;-62
2024/01/27 00:16:56;;;;;;;14.93;10.57;;;;;;;-1.81;69.78;93867.75;522783;28;953;-61
2024/01/27 00:17:11;;;;;;;15.88;11.00;;;;;;;-1.82;69.71;93868.97;521921;28;832;-62
2024/01/27 00:17:27;;;;;;;15.70;10.77;;;;;;;-2.07;70.16;93829.56;523115;28;760;-61
2024/01/27 00:17:43;;;;;;;15.57;10.57;;;;;;;-1.81;70.01;93871.22;522093;28;860;-61
2024/01/27 00:17:59;;;;;;;16.45;11.55;;;;;;;-1.85;70.35;93869.88;523664;28;868;-61
2024/01/27 00:18:16;;;;;;;18.07;12.40;;;;;;;-1.87;70.94;93866.88;522561;28;1772;-61
2024/01/27 00:18:31;;;;;;;17.85;11.95;;;;;;;-1.87;70.84;93869.59;523172;28;940;-61
2024/01/27 00:18:47;;;;;;;19.00;12.07;;;;;;;-1.87;70.71;93869.59;521962;28;812;-62
2024/01/27 00:19:02;;;;;;;21.37;12.17;;;;;;;-1.92;70.82;93859.38;524090;28;1914;-61
2024/01/27 00:19:18;;;;;;;19.98;11.30;;;;;;;-1.85;70.99;93867.16;522377;28;887;-61
2024/01/27 00:19:33;;;;;;;19.03;11.80;;;;;;;-1.86;70.83;93869.13;523980;28;780;-62
2024/01/27 00:19:48;;;;;;;19.88;11.90;;;;;;;-1.86;70.77;93866.41;523991;28;856;-62
2024/01/27 00:20:04;;;;;;;19.27;12.03;;;;;;;-1.87;70.91;93862.22;524237;28;808;-61
2024/01/27 00:20:20;;;;;;;19.27;12.70;;;;;;;-2.14;70.88;93835.28;521762;28;1709;-61
2024/01/27 00:20:35;;;;;;;20.23;13.05;;;;;;;-1.95;71.00;93861.03;522338;28;883;-61
2024/01/27 00:20:51;;;;;;;18.07;12.53;;;;;;;-1.94;71.04;93864.50;523023;28;1668;-62
2024/01/27 00:21:07;;;;;;;15.77;11.45;;;;;;;-2.21;71.43;93835.66;523121;28;824;-62
2024/01/27 00:21:22;;;;;;;14.77;10.90;;;;;;;-2.13;71.73;93853.03;523561;28;1611;-62
2024/01/27 00:21:38;;;;;;;16.60;10.67;;;;;;;-2.19;71.85;93859.50;524086;28;752;-62
2024/01/27 00:21:53;;;;;;;16.05;10.52;;;;;;;-2.17;72.06;93852.44;522924;28;1115;-61
2024/01/27 00:22:09;;;;;;;18.17;10.73;;;;;;;-2.17;72.19;93855.16;523906;28;803;-61
2024/01/27 00:22:24;;;;;;;18.75;11.23;;;;;;;-2.14;71.87;93862.34;523093;28;780;-62
2024/01/27 00:22:40;;;;;;;15.80;11.30;;;;;;;-2.11;72.17;93856.03;523841;28;757;-61
2024/01/27 00:22:55;;;;;;;17.65;11.57;;;;;;;-2.09;71.83;93850.16;522874;28;1670;-61
2024/01/27 00:23:11;;;;;;;18.40;11.70;;;;;;;-2.06;72.01;93854.66;521772;28;867;-61
2024/01/27 00:23:26;;;;;;;19.48;12.00;;;;;;;-2.07;71.93;93848.50;522333;28;1143;-61
2024/01/27 00:23:41;;;;;;;19.00;12.27;;;;;;;-2.05;72.11;93854.19;521779;28;800;-61
2024/01/27 00:24:00;;;;;;;16.55;11.80;;;;;;;-2.08;72.12;93849.69;522240;28;843;-61
2024/01/27 00:24:16;;;;;;;17.23;11.80;;;;;;;-2.07;72.25;93853.13;521764;28;899;-61
2024/01/27 00:24:32;;;;;;;18.55;12.05;;;;;;;-2.08;72.19;93848.97;523577;28;866;-62
2024/01/27 00:24:47;;;;;;;16.95;11.48;;;;;;;-2.12;72.43;93849.09;523863;28;851;-62
2024/01/27 00:25:03;;;;;;;14.57;11.00;;;;;;;-2.15;72.49;93841.16;522728;28;1042;-61
2024/01/27 00:25:19;;;;;;;14.88;11.30;;;;;;;-2.15;72.72;93855.44;521681;28;1671;-61
2024/01/27 00:25:34;;;;;;;16.83;10.85;;;;;;;-2.14;72.33;93850.78;522417;28;1555;-62
2024/01/27 00:25:49;;;;;;;18.20;11.13;;;;;;;-2.13;72.68;93844.91;523161;28;808;-62
2024/01/27 00:26:05;;;;;;;16.27;10.82;;;;;;;-2.11;72.17;93847.16;521848;28;829;-62
2024/01/27 00:26:20;;;;;;;14.10;9.70;;;;;;;-2.08;72.20;93852.38;521577;28;1464;-62
2024/01/27 00:26:36;;;;;;;12.97;9.30;;;;;;;-2.06;72.56;93850.00;521767;28;1030;-62
2024/01/27 00:26:51;;;;;;;12.40;8.88;;;;;;;-2.05;72.07;93848.78;522268;28;1363;-62
2024/01/27 00:27:06;;;;;;;12.00;8.77;;;;;;;-2.02;71.66;93849.81;523551;28;1155;-61
2024/01/27 00:27:22;;;;;;;11.32;8.65;;;;;;;-2.00;72.03;93850.88;521870;28;910;-62
2024/01/27 00:27:37;;;;;;;11.33;8.37;;;;;;;-1.97;72.24;93847.22;522124;28;752;-62
2024/01/27 00:27:53;;;;;;;12.07;8.50;;;;;;;-1.93;72.07;93849.78;522540;28;753;-61
2024/01/27 00:28:08;;;;;;;12.13;8.73;;;;;;;-1.90;71.64;93849.59;523702;28;855;-61
2024/01/27 00:28:24;;;;;;;12.88;8.88;;;;;;;-1.88;71.91;93846.44;522480;28;1148;-62
2024/01/27 00:28:39;;;;;;;16.80;9.03;;;;;;;-1.87;71.63;93843.28;523060;28;1703;-62
2024/01/27 00:28:55;;;;;;;15.98;8.82;;;;;;;-1.90;71.38;93841.50;523138;28;737;-61
2024/01/27 00:29:10;;;;;;;14.07;8.07;;;;;;;-1.93;71.30;93838.97;521732;28;832;-62
2024/01/27 00:29:26;;;;;;;15.38;7.65;;;;;;;-1.96;71.40;93842.56;522773;28;802;-62
2024/01/27 00:29:41;;;;;;;11.63;7.27;;;;;;;-1.99;71.30;93840.81;522752;28;1701;-62
2024/01/27 00:29:57;;;;;;;8.75;7.05;;;;;;;-2.02;71.44;93834.34;521984;28;1085;-61
2024/01/27 00:30:13;;;;;;;11.73;7.10;;;;;;;-2.01;71.71;93840.47;522902;28;816;-62
2024/01/27 00:30:28;;;;;;;13.02;7.70;;;;;;;-2.01;71.79;93837.78;523744;28;1093;-61
2024/01/27 00:30:44;;;;;;;10.70;7.75;;;;;;;-2.03;71.25;93837.50;522826;28;923;-62
2024/01/27 00:30:59;;;;;;;11.53;8.03;;;;;;;-2.04;71.49;93838.72;523496;28;860;-61
2024/01/27 00:31:15;;;;;;;11.45;7.70;;;;;;;-2.07;71.44;93834.22;523460;28;1112;-62
2024/01/27 00:31:30;;;;;;;9.57;7.07;;;;;;;-2.10;71.64;93840.56;523665;28;1015;-62
2024/01/27 00:31:45;;;;;;;8.05;6.93;;;;;;;-2.13;71.08;93834.09;523349;28;956;-61
2024/01/27 00:32:01;;;;;;;8.17;6.63;;;;;;;-2.15;71.45;93833.06;522925;28;1014;-62
2024/01/27 00:32:17;;;;;;;8.65;6.57;;;;;;;-2.16;71.26;93831.53;522579;28;1689;-60
2024/01/27 00:32:33;;;;;;;8.60;6.50;;;;;;;-2.43;71.46;93800.72;523132;28;1587;-62
2024/01/27 00:32:49;;;;;;;9.15;6.85;;;;;;;-2.15;71.28;93831.09;522466;28;1007;-62
2024/01/27 00:33:04;;;;;;;10.50;7.00;;;;;;;-2.12;71.43;93835.59;523922;28;886;-62
2024/01/27 00:33:20;;;;;;;9.50;6.32;;;;;;;-2.14;71.49;93843.41;523407;28;1316;-62
2024/01/27 00:33:36;;;;;;;7.60;6.57;;;;;;;-2.12;71.30;93835.59;524116;28;943;-62
2024/01/27 00:33:52;;;;;;;10.55;7.20;;;;;;;-2.10;71.10;93841.28;523625;28;1205;-63
2024/01/27 00:34:07;;;;;;;11.82;6.78;;;;;;;-2.07;71.00;93837.66;523570;28;1094;-62
2024/01/27 00:34:23;;;;;;;10.10;6.50;;;;;;;-2.05;70.95;93834.50;523836;28;1168;-62
2024/01/27 00:34:38;;;;;;;8.25;6.22;;;;;;;-2.05;71.14;93835.25;522629;28;1121;-63
2024/01/27 00:34:54;;;;;;;7.90;5.90;;;;;;;-2.02;71.10;93833.59;523352;28;891;-62
2024/01/27 00:35:11;;;;;;;9.68;6.00;;;;;;;-2.01;70.88;93835.84;523656;28;1098;-63
2024/01/27 00:35:26;;;;;;;9.50;5.90;;;;;;;-1.98;70.98;93832.22;523900;28;1148;-62
2024/01/27 00:35:42;;;;;;;8.00;5.70;;;;;;;-1.98;71.24;93834.91;522205;28;1725;-63
2024/01/27 00:35:57;;;;;;;6.78;5.78;;;;;;;-1.99;70.94;93829.97;522185;28;1000;-63
2024/01/27 00:36:13;;;;;;;6.27;5.07;;;;;;;-2.05;71.15;93831.78;522802;28;1099;-63
2024/01/27 00:36:28;;;;;;;6.75;4.32;;;;;;;-2.16;71.20;93834.25;522071;28;1169;-63
2024/01/27 00:36:48;;;;;;;5.97;4.00;;;;;;;-2.26;71.24;93830.09;523457;28;843;-63
2024/01/27 00:37:04;;;;;;;4.38;3.70;;;;;;;-2.31;71.60;93832.22;523528;28;1062;-63
2024/01/27 00:37:19;;;;;;;5.07;3.50;;;;;;;-2.32;71.89;93838.81;522565;28;1519;-62
2024/01/27 00:37:35;;;;;;;6.72;3.20;;;;;;;-2.32;71.70;93838.09;523700;28;815;-62
2024/01/27 00:37:50;;;;;;;6.32;2.83;;;;;;;-2.32;72.12;93830.69;522272;28;768;-62
2024/01/27 00:38:05;;;;;;;4.70;3.10;;;;;;;-2.30;71.54;93836.41;523732;28;945;-63
2024/01/27 00:38:21;;;;;;;4.43;3.20;;;;;;;-2.27;72.16;93834.00;522476;28;1745;-62
2024/01/27 00:38:36;;;;;;;4.20;3.17;;;;;;;-2.24;71.75;93839.25;523031;28;995;-63
2024/01/27 00:38:52;;;;;;;3.60;3.17;;;;;;;-2.20;71.90;93844.47;523772;28;764;-62
2024/01/27 00:39:08;;;;;;;3.45;3.13;;;;;;;-2.18;71.81;93840.13;523878;28;1921;-62
2024/01/27 00:39:23;;;;;;;3.97;3.47;;;;;;;-2.15;71.58;93843.88;524278;28;890;-62
2024/01/27 00:39:39;;;;;;;5.87;4.20;;;;;;;-2.13;71.40;93844.16;522269;28;986;-62
2024/01/27 00:39:54;;;;;;;6.97;4.28;;;;;;;-2.13;71.31;93849.56;524314;28;784;-62
2024/01/27 00:40:11;;;;;;;7.07;3.87;;;;;;;-2.13;71.66;93844.16;524026;28;859;-62
2024/01/27 00:40:26;;;;;;;5.68;3.70;;;;;;;-2.12;70.97;93851.09;523764;28;898;-63
2024/01/27 00:40:42;;;;;;;7.50;3.80;;;;;;;-2.11;71.54;93855.28;521743;28;1188;-63
2024/01/27 00:40:57;;;;;;;7.85;3.90;;;;;;;-2.09;71.19;93852.84;522882;28;1633;-62
2024/01/27 00:41:17;;;;;;;4.50;3.50;;;;;;;-2.07;71.23;93847.72;522970;28;899;-62
2024/01/27 00:41:32;;;;;;;4.93;3.65;;;;;;;-2.05;71.40;93842.63;522450;28;1627;-63
2024/01/27 00:41:47;;;;;;;5.10;3.87;;;;;;;-2.01;71.50;93848.59;522289;28;882;-63
2024/01/27 00:42:03;;;;;;;5.32;3.67;;;;;;;-2.00;71.06;93850.88;522737;28;779;-63
2024/01/27 00:42:23;;;;;;;5.33;4.00;;;;;;;-1.97;71.03;93844.53;522582;28;966;-63
2024/01/27 00:42:40;;;;;;;6.43;4.10;;;;;;;-1.95;71.39;93847.53;522649;28;870;-62
2024/01/27 00:42:55;;;;;;;6.22;4.30;;;;;;;-1.95;70.81;93846.78;524321;28;875;-63
2024/01/27 00:43:11;;;;;;;6.65;4.50;;;;;;;-1.95;70.75;93844.81;521949;28;1151;-62
2024/01/27 00:43:26;;;;;;;6.77;4.30;;;;;;;-1.94;70.98;93845.56;522920;28;762;-63
2024/01/27 00:43:42;;;;;;;7.50;4.45;;;;;;;-1.94;70.92;93849.03;523353;28;815;-63
2024/01/27 00:43:57;;;;;;;7.97;4.70;;;;;;;-1.91;70.64;93853.53;523408;28;736;-62
2024/01/27 00:44:13;;;;;;;6.90;4.67;;;;;;;-1.91;70.14;93845.41;524019;28;760;-62
2024/01/27 00:44:28;;;;;;;5.70;4.35;;;;;;;-1.89;70.29;93848.41;524335;28;807;-63
2024/01/27 00:44:43;;;;;;;5.20;4.37;;;;;;;-1.86;69.68;93849.44;522165;28;1855;-63
2024/01/27 00:44:59;;;;;;;5.85;4.72;;;;;;;-1.85;69.87;93846.28;522503;28;1636;-63
2024/01/27 00:45:15;;;;;;;5.53;4.40;;;;;;;-1.83;69.69;93848.53;523408;28;835;-62
2024/01/27 00:45:30;;;;;;;5.93;4.15;;;;;;;-1.81;69.47;93852.28;522993;28;756;-63
2024/01/27 00:45:46;;;;;;;6.20;4.40;;;;;;;-1.80;69.71;93848.34;521819;28;931;-62
2024/01/27 00:46:01;;;;;;;5.97;4.43;;;;;;;-1.80;69.64;93851.03;522845;28;874;-62
2024/01/27 00:46:16;;;;;;;5.93;4.33;;;;;;;-1.81;69.59;93846.84;521874;28;804;-62
2024/01/27 00:46:32;;;;;;;5.10;4.03;;;;;;;-1.81;69.64;93857.69;523522;28;1112;-63
2024/01/27 00:46:47;;;;;;;5.63;4.10;;;;;;;-1.81;69.26;93856.94;522502;28;815;-62
2024/01/27 00:47:03;;;;;;;6.13;4.30;;;;;;;-1.81;69.64;93852.28;523376;28;900;-62
2024/01/27 00:47:18;;;;;;;7.00;4.17;;;;;;;-1.78;69.39;93856.78;522176;28;1811;-63
2024/01/27 00:47:34;;;;;;;6.85;4.30;;;;;;;-1.78;69.30;93854.06;522537;28;1705;-61
2024/01/27 00:47:50;;;;;;;6.00;4.20;;;;;;;-1.77;69.08;93852.84;522898;28;900;-63
2024/01/27 00:48:06;;;;;;;5.75;4.10;;;;;;;-1.74;69.31;93856.59;522500;28;966;-63
2024/01/27 00:48:22;;;;;;;4.80;3.93;;;;;;;-1.73;69.26;93856.13;523140;28;824;-62
2024/01/27 00:48:37;;;;;;;5.78;4.38;;;;;;;-1.73;68.80;93858.84;523371;28;803;-63
2024/01/27 00:48:53;;;;;;;6.67;4.77;;;;;;;-1.73;68.76;93858.84;522791;28;784;-63
2024/01/27 00:49:08;;;;;;;5.88;4.68;;;;;;;-1.74;69.25;93853.88;523983;28;890;-62
2024/01/27 00:49:24;;;;;;;7.13;4.73;;;;;;;-1.73;68.88;93852.66;523763;28;871;-63
2024/01/27 00:49:39;;;;;;;9.30;4.80;;;;;;;-1.72;68.90;93863.06;522946;28;1117;-62
2024/01/27 00:49:55;;;;;;;8.23;4.70;;;;;;;-1.71;68.84;93864.53;523093;28;820;-62
2024/01/27 00:50:11;;;;;;;6.70;4.53;;;;;;;-1.70;68.70;93862.59;523559;28;1729;-63
2024/01/27 00:50:26;;;;;;;6.88;4.63;;;;;;;-1.70;68.68;93865.28;523150;28;866;-63
2024/01/27 00:50:41;;;;;;;6.80;4.60;;;;;;;-1.69;68.79;93866.81;521817;28;863;-63
2024/01/27 00:50:57;;;;;;;6.50;4.47;;;;;;;-1.69;68.95;93862.13;522611;28;1702;-62
2024/01/27 00:51:13;;;;;;;5.72;4.65;;;;;;;-1.67;68.67;93867.09;522300;28;966;-63
2024/01/27 00:51:28;;;;;;;7.15;5.15;;;;;;;-1.68;68.58;93860.16;523724;28;796;-62
2024/01/27 00:51:44;;;;;;;6.80;4.70;;;;;;;-1.67;68.70;93870.53;523977;28;816;-63
2024/01/27 00:51:59;;;;;;;5.10;4.28;;;;;;;-1.71;68.64;93861.81;522831;28;914;-62
2024/01/27 00:52:15;;;;;;;5.47;4.27;;;;;;;-1.72;68.58;93860.34;521963;28;807;-63
2024/01/27 00:52:30;;;;;;;8.52;4.72;;;;;;;-1.71;68.81;93861.09;524016;28;800;-63
2024/01/27 00:52:46;;;;;;;8.73;5.23;;;;;;;-1.72;68.60;93863.06;523663;28;1053;-62
2024/01/27 00:53:02;;;;;;;5.80;5.07;;;;;;;-1.74;68.80;93851.19;523198;28;851;-63
2024/01/27 00:53:17;;;;;;;6.00;4.80;;;;;;;-1.71;69.20;93853.72;521851;28;917;-63
2024/01/27 00:53:33;;;;;;;5.93;4.40;;;;;;;-1.72;69.28;93860.34;522983;28;1627;-63
2024/01/27 00:53:49;;;;;;;6.40;4.68;;;;;;;-1.74;69.49;93862.00;522932;28;831;-63
2024/01/27 00:54:04;;;;;;;7.10;5.10;;;;;;;-1.79;69.43;93859.91;523205;28;859;-63
2024/01/27 00:54:20;;;;;;;6.63;5.07;;;;;;;-1.88;70.05;93851.84;521842;28;890;-63
2024/01/27 00:54:35;;;;;;;8.97;5.20;;;;;;;-1.93;70.42;93849.78;522421;28;1374;-63
2024/01/27 00:54:50;;;;;;;9.20;5.40;;;;;;;-2.02;70.29;93842.47;523156;28;796;-63
2024/01/27 00:55:06;;;;;;;6.93;5.23;;;;;;;-2.11;70.95;93845.19;523237;28;919;-63
2024/01/27 00:55:22;;;;;;;6.65;5.18;;;;;;;-2.24;70.93;93836.53;524076;28;851;-63
2024/01/27 00:55:37;;;;;;;8.50;5.80;;;;;;;-2.29;71.17;93837.16;522782;28;847;-62
2024/01/27 00:55:53;;;;;;;8.47;5.70;;;;;;;-2.37;71.56;93842.16;522749;28;804;-63
2024/01/27 00:56:08;;;;;;;9.90;5.72;;;;;;;-2.45;72.07;93840.97;522522;28;993;-63
2024/01/27 00:56:23;;;;;;;9.67;5.80;;;;;;;-2.45;72.61;93843.66;522556;28;812;-63
2024/01/27 00:56:39;;;;;;;10.30;5.50;;;;;;;-2.46;72.50;93844.13;522754;28;1761;-62
2024/01/27 00:56:54;;;;;;;11.57;5.70;;;;;;;-2.46;73.04;93844.13;523486;28;839;-63
2024/01/27 00:57:10;;;;;;;9.77;5.40;;;;;;;-2.44;73.34;93841.72;522382;28;898;-63
2024/01/27 00:57:25;;;;;;;12.48;5.55;;;;;;;-2.41;73.06;93843.53;523050;28;1717;-63
2024/01/27 00:57:41;;;;;;;13.53;5.93;;;;;;;-2.38;73.07;93839.88;522620;28;887;-63
2024/01/27 00:57:56;;;;;;;10.85;6.18;;;;;;;-2.39;72.74;93847.28;523691;28;816;-63
2024/01/27 00:58:12;;;;;;;13.83;6.63;;;;;;;-2.36;72.80;93848.31;523528;28;1099;-62
2024/01/27 00:58:27;;;;;;;16.15;7.07;;;;;;;-2.34;72.90;93837.78;524262;28;867;-62
2024/01/27 00:58:42;;;;;;;14.17;7.53;;;;;;;-2.33;72.83;93836.56;522779;28;847;-63
2024/01/27 00:58:58;;;;;;;13.32;7.00;;;;;;;-2.32;72.80;93846.94;523544;28;809;-63
2024/01/27 00:59:13;;;;;;;12.57;6.47;;;;;;;-2.32;73.07;93838.81;522719;28;1710;-63
2024/01/27 00:59:29;;;;;;;11.63;6.73;;;;;;;-2.29;73.12;93839.88;523219;28;1050;-62
2024/01/27 00:59:44;;;;;;;10.85;6.70;;;;;;;-2.26;73.25;93843.63;522562;28;808;-62
2024/01/27 01:00:00;;;;;;;8.70;6.40;;;;;;;-2.22;73.14;93841.50;523405;28;1444;-63
2024/01/27 01:00:15;;;;;;;7.47;5.75;;;;;;;-2.18;73.02;93848.22;521999;28;978;-63
2024/01/27 01:00:31;;;;;;;8.93;5.72;;;;;;;-2.16;73.16;93835.00;522838;28;1385;-62
2024/01/27 01:00:46;;;;;;;9.43;6.40;;;;;;;-2.12;72.69;93845.66;523737;28;761;-63
2024/01/27 01:01:02;;;;;;;8.40;6.53;;;;;;;-2.11;73.04;93834.38;523404;28;832;-63
2024/01/27 01:01:17;;;;;;;8.23;6.33;;;;;;;-2.08;73.03;93840.84;521841;28;866;-63
2024/01/27 01:01:33;;;;;;;7.78;6.22;;;;;;;-2.08;72.47;93838.88;523829;28;820;-62
2024/01/27 01:01:49;;;;;;;7.17;6.20;;;;;;;-2.10;72.86;93830.47;522203;28;1142;-63
2024/01/27 01:02:04;;;;;;;7.78;6.03;;;;;;;-2.18;73.03;93834.72;523368;28;910;-63
2024/01/27 01:02:20;;;;;;;8.25;5.72;;;;;;;-2.26;72.77;93832.78;521648;28;919;-63
2024/01/27 01:02:36;;;;;;;7.33;5.37;;;;;;;-2.33;73.12;93829.22;524072;28;784;-63
2024/01/27 01:02:51;;;;;;;7.25;5.20;;;;;;;-2.36;73.19;93830.13;522220;28;1836;-63
2024/01/27 01:03:07;;;;;;;8.45;5.15;;;;;;;-2.38;73.19;93834.47;521695;28;764;-63
2024/01/27 01:03:22;;;;;;;8.53;5.17;;;;;;;-2.39;73.28;93831.06;523828;28;867;-63
2024/01/27 01:03:38;;;;;;;9.50;5.30;;;;;;;-2.37;73.25;93828.63;523313;28;1139;-63
2024/01/27 01:03:53;;;;;;;8.87;5.20;;;;;;;-2.34;73.36;93832.38;523595;28;989;-62
2024/01/27 01:04:09;;;;;;;7.63;5.10;;;;;;;-2.32;73.00;93829.97;521427;28;1886;-63
2024/01/27 01:04:24;;;;;;;7.33;5.13;;;;;;;-2.27;73.44;93826.63;522917;28;877;-63
2024/01/27 01:04:41;;;;;;;7.97;5.15;;;;;;;-2.24;73.20;93820.31;524021;28;1176;-63
2024/01/27 01:04:56;;;;;;;8.77;4.93;;;;;;;-2.23;72.78;93829.19;524420;28;813;-63
2024/01/27 01:05:12;;;;;;;8.07;4.47;;;;;;;-2.23;73.12;93837.31;521869;28;1092;-63
2024/01/27 01:05:27;;;;;;;9.03;5.07;;;;;;;-2.26;72.82;93822.72;522471;28;1339;-63
2024/01/27 01:05:43;;;;;;;8.95;5.82;;;;;;;-2.25;72.98;93823.50;521638;28;855;-63
2024/01/27 01:05:58;;;;;;;6.87;5.43;;;;;;;-2.23;72.97;93823.78;522607;28;1632;-63
2024/01/27 01:06:13;;;;;;;8.25;5.65;;;;;;;-2.22;72.75;93826.00;522399;28;809;-63
2024/01/27 01:06:29;;;;;;;9.37;5.77;;;;;;;-2.19;72.62;93825.13;522243;28;820;-63
2024/01/27 01:06:44;;;;;;;8.18;5.15;;;;;;;-2.16;72.84;93824.19;521490;28;1499;-62
2024/01/27 01:07:00;;;;;;;7.70;5.03;;;;;;;-2.13;72.40;93819.81;522605;28;729;-63
2024/01/27 01:07:15;;;;;;;7.82;5.40;;;;;;;-2.10;72.49;93818.91;521698;28;788;-63
2024/01/27 01:07:31;;;;;;;7.77;5.43;;;;;;;-2.07;72.33;93823.38;524037;28;879;-63
2024/01/27 01:07:46;;;;;;;7.20;5.22;;;;;;;-2.05;72.23;93826.38;523766;28;784;-63
2024/01/27 01:08:02;;;;;;;7.40;5.00;;;;;;;-2.12;72.39;93822.06;523519;28;819;-63
2024/01/27 01:08:17;;;;;;;6.63;4.40;;;;;;;-2.02;72.19;93831.63;521728;28;1065;-63
2024/01/27 01:08:33;;;;;;;6.03;4.10;;;;;;;-1.99;72.06;93829.97;523465;28;1713;-63
2024/01/27 01:08:48;;;;;;;5.93;4.20;;;;;;;-1.99;72.36;93836.13;522406;28;1022;-63
2024/01/27 01:09:04;;;;;;;5.83;4.33;;;;;;;-1.98;71.93;93836.88;522263;28;847;-62
2024/01/27 01:09:19;;;;;;;6.20;4.57;;;;;;;-1.98;72.12;93837.63;521699;28;843;-62
2024/01/27 01:09:35;;;;;;;5.80;4.60;;;;;;;-1.97;72.09;93830.28;522721;28;1759;-63
2024/01/27 01:09:50;;;;;;;6.72;4.43;;;;;;;-1.96;71.85;93834.47;523279;28;824;-63
2024/01/27 01:10:06;;;;;;;8.27;4.67;;;;;;;-1.94;71.85;93835.50;524360;28;1407;-63
2024/01/27 01:10:22;;;;;;;7.15;4.70;;;;;;;-1.90;71.97;93835.31;525591;28;1596;-63
2024/01/27 01:10:37;;;;;;;5.47;4.13;;;;;;;-1.90;71.74;93830.66;522309;28;836;-63
2024/01/27 01:10:53;;;;;;;5.63;4.30;;;;;;;-1.88;71.76;93827.50;522364;28;798;-63
2024/01/27 01:11:09;;;;;;;5.97;4.25;;;;;;;-1.87;71.19;93829.00;523486;28;764;-63
2024/01/27 01:11:25;;;;;;;7.90;4.15;;;;;;;-1.87;71.43;93832.47;522866;28;1819;-63
2024/01/27 01:11:41;;;;;;;7.97;4.53;;;;;;;-1.87;71.52;93824.34;522017;28;1148;-63
2024/01/27 01:11:56;;;;;;;6.93;4.85;;;;;;;-1.85;71.39;93832.75;522464;28;856;-63
2024/01/27 01:12:12;;;;;;;6.63;4.63;;;;;;;-1.86;70.96;93833.94;521700;28;840;-63
2024/01/27 01:12:27;;;;;;;6.30;4.63;;;;;;;-1.86;70.66;93827.78;522320;28;777;-63
2024/01/27 01:12:43;;;;;;;6.23;4.70;;;;;;;-1.85;70.77;93832.75;521421;28;1762;-63
2024/01/27 01:12:58;;;;;;;8.25;5.18;;;;;;;-1.83;70.76;93824.16;523133;28;852;-62
2024/01/27 01:13:14;;;;;;;7.77;5.30;;;;;;;-2.05;70.82;93788.50;523155;28;1010;-63
2024/01/27 01:13:29;;;;;;;6.15;4.68;;;;;;;-1.80;70.68;93826.69;523239;28;843;-63
2024/01/27 01:13:45;;;;;;;5.10;4.23;;;;;;;-1.79;70.41;93825.50;521596;28;785;-63
2024/01/27 01:14:00;;;;;;;4.85;4.35;;;;;;;-1.79;70.38;93830.91;522648;28;1651;-63
2024/01/27 01:14:15;;;;;;;5.73;4.67;;;;;;;-1.78;70.50;93823.53;521612;28;1627;-63
2024/01/27 01:14:31;;;;;;;6.25;4.50;;;;;;;-1.77;70.10;93823.06;522661;28;824;-63
2024/01/27 01:14:46;;;;;;;6.53;4.43;;;;;;;-1.76;70.30;93819.16;521383;28;999;-63
2024/01/27 01:15:02;;;;;;;5.80;4.40;;;;;;;-1.75;69.95;93828.78;523261;28;1006;-63
2024/01/27 01:15:17;;;;;;;4.80;4.20;;;;;;;-1.73;70.31;93825.59;520872;28;1365;-63